Swift Arrow — WAFK — position and weather

sailwx.info

Track history (hours):
 
Tides and Currents Weather Stations Pressure Air Temp Water Temp Dewpoint Dewpoint Depression Visibility Wind Speed Wind Dir Waves Ship Positions

Swift Arrow

Owner: ARROW LAUNCH SERVICE INC, Port Angeles, WA. More information available from US FCC via Universal Licensing System and Coast Guard Vessel Documentation Center.

Last reported at 2014-Oct-02 03:28 UTC. Time now 2014-Oct-02 14:29 UTC.
Position N 48°31' W 122°37'.

Type: Port tender. MMSI: 369021000.

Date/timePositionNaut miles runAvg speedWind from/ knotsBaromVisibWave heightAir tempDewpointWater temp
2014-Oct-02 03:28N 48°31' W 122°37'0 0.0
2014-Oct-02 02:33N 48°31' W 122°37'0 0.0
2014-Oct-02 01:33N 48°31' W 122°37'0 0.0
2014-Oct-02 00:33N 48°31' W 122°37'1 0.9
2014-Oct-01 23:33N 48°31' W 122°35'2 1.6
2014-Oct-01 22:33N 48°32' W 122°34'2 2.3
2014-Oct-01 21:33N 48°31' W 122°37'5 4.5
2014-Oct-01 20:33N 48°35' W 122°34'5 0.3
2014-Oct-01 04:17N 48°31' W 122°37'4 5.3
2014-Oct-01 03:33N 48°34' W 122°34'4 3.8
2014-Oct-01 02:33N 48°31' W 122°37'0 0.0
2014-Oct-01 01:33N 48°31' W 122°37'1 0.7
2014-Oct-01 00:33N 48°31' W 122°36'7 6.6
2014-Sep-30 23:33N 48°37' W 122°33'7 6.9
2014-Sep-30 22:33N 48°31' W 122°37'5 0.4
2014-Sep-30 09:33N 48°35' W 122°32'5 2.3
2014-Sep-30 07:12N 48°31' W 122°37'1 1.4
2014-Sep-30 06:33N 48°31' W 122°35'1 0.9
2014-Sep-30 05:33N 48°31' W 122°37'0 0.0
2014-Sep-30 04:33N 48°31' W 122°37'4 0.6
2014-Sep-29 21:33N 48°35' W 122°34'4 3.9
2014-Sep-29 20:33N 48°31' W 122°35'6 6.3
2014-Sep-29 19:33N 48°37' W 122°33'7 6.9
2014-Sep-29 18:33N 48°31' W 122°37'6 6.2
2014-Sep-29 17:32N 48°37' W 122°33'6 6.4
2014-Sep-29 16:33N 48°31' W 122°37'4 0.6
2014-Sep-29 10:32N 48°34' W 122°34'4 3.6
2014-Sep-29 09:33N 48°31' W 122°37'0 0.0
2014-Sep-28 23:33N 48°31' W 122°37'5 5.3
2014-Sep-28 22:33N 48°35' W 122°32'5 5.4
2014-Sep-28 21:34N 48°31' W 122°37'0 0.0
2014-Sep-28 09:14N 48°31' W 122°37'1 1.5
2014-Sep-28 08:33N 48°31' W 122°35'1 1.0
2014-Sep-28 07:33N 48°31' W 122°37'0 0.0
2014-Sep-28 06:33N 48°31' W 122°37'6 5.9
2014-Sep-28 05:34N 48°36' W 122°34'6 5.9
2014-Sep-28 04:34N 48°31' W 122°36'0 0.0
2014-Sep-27 17:33N 48°31' W 122°36'25 2.0
2014-Sep-27 05:24N 48°09' W 122°54'2 0.5
2014-Sep-27 00:25N 48°09' W 122°58'5 1.6
2014-Sep-26 21:17N 48°09' W 122°51'11 1.9
2014-Sep-26 15:32N 48°20' W 122°47'1313.8
2014-Sep-26 14:33N 48°31' W 122°37'1 0.1
2014-Sep-26 05:33N 48°31' W 122°36'2 2.0
2014-Sep-26 04:33N 48°32' W 122°34'2 0.4
2014-Sep-25 23:33N 48°31' W 122°36'0 0.5
2014-Sep-25 22:33N 48°31' W 122°37'0 0.0
2014-Sep-25 21:33N 48°31' W 122°37'0 0.0
2014-Sep-25 20:33N 48°31' W 122°37'0 0.2
2014-Sep-25 19:33N 48°31' W 122°36'0 0.2
2014-Sep-25 18:33N 48°31' W 122°37'0 0.0
2014-Sep-25 17:33N 48°31' W 122°37'4 3.9
2014-Sep-25 16:33N 48°31' W 122°42'4 4.0
2014-Sep-25 15:33N 48°31' W 122°36'0 0.1
2014-Sep-25 14:33N 48°31' W 122°36'0 0.2
2014-Sep-25 13:33N 48°31' W 122°37'0 0.0
2014-Sep-25 12:33N 48°31' W 122°37'0 0.0
2014-Sep-25 11:34N 48°31' W 122°37'0 0.0
2014-Sep-25 03:12N 48°31' W 122°37'2 3.2
2014-Sep-25 02:33N 48°32' W 122°34'1 0.8
2014-Sep-25 01:33N 48°31' W 122°35'1 0.8
2014-Sep-25 00:33N 48°31' W 122°35'0 0.2
2014-Sep-24 23:33N 48°31' W 122°36'1 0.7
2014-Sep-24 22:33N 48°31' W 122°37'7 7.1
2014-Sep-24 21:33N 48°37' W 122°32'7 7.1
2014-Sep-24 20:33N 48°31' W 122°37'0 0.0
2014-Sep-24 19:33N 48°31' W 122°37'2 1.6
2014-Sep-24 18:33N 48°31' W 122°34'6 6.0
2014-Sep-24 17:33N 48°37' W 122°32'7 7.1
2014-Sep-24 16:33N 48°31' W 122°37'0 0.0
2014-Sep-24 15:33N 48°31' W 122°37'0 0.0
2014-Sep-24 14:33N 48°31' W 122°37'0 0.0
2014-Sep-24 13:33N 48°31' W 122°37'2 1.5
2014-Sep-24 12:33N 48°31' W 122°35'1 0.2
2014-Sep-24 09:33N 48°32' W 122°34'2 0.2
2014-Sep-23 22:33N 48°31' W 122°36'2 2.3
2014-Sep-23 21:33N 48°32' W 122°34'0 0.1
2014-Sep-23 20:33N 48°33' W 122°34'2 1.9
2014-Sep-23 19:33N 48°31' W 122°36'1 0.7
2014-Sep-23 18:33N 48°31' W 122°37'6 5.3
2014-Sep-23 17:31N 48°35' W 122°32'5 5.7
2014-Sep-23 16:33N 48°31' W 122°37'5 5.4
2014-Sep-23 15:33N 48°35' W 122°32'0 0.1
2014-Sep-23 14:33N 48°35' W 122°32'6 5.6
2014-Sep-23 13:33N 48°31' W 122°37'4 0.7
2014-Sep-23 07:33N 48°35' W 122°34'4 0.5
2014-Sep-22 23:22N 48°31' W 122°37'0 0.1
2014-Sep-22 22:33N 48°31' W 122°36'7 6.6
2014-Sep-22 21:33N 48°37' W 122°33'3 0.2
2014-Sep-22 04:33N 48°34' W 122°34'4 3.6
2014-Sep-22 03:33N 48°31' W 122°37'  
Track history (hours):
 
Tides and Currents Weather Stations Pressure Air Temp Water Temp Dewpoint Dewpoint Depression Visibility Wind Speed Wind Dir Waves Ship Positions

Swift Arrow

Owner: ARROW LAUNCH SERVICE INC, Port Angeles, WA. More information available from US FCC via Universal Licensing System and Coast Guard Vessel Documentation Center.

Last reported at 2014-Oct-02 03:28 UTC. Time now 2014-Oct-02 14:29 UTC.
Position N 48°31' W 122°37'.

Type: Port tender. MMSI: 369021000.

Date/timePositionNaut miles runAvg speedWind from/ knotsBaromVisibWave heightAir tempDewpointWater temp
2014-Oct-02 03:28N 48°31' W 122°37'0 0.0
2014-Oct-02 02:33N 48°31' W 122°37'0 0.0
2014-Oct-02 01:33N 48°31' W 122°37'0 0.0
2014-Oct-02 00:33N 48°31' W 122°37'1 0.9
2014-Oct-01 23:33N 48°31' W 122°35'2 1.6
2014-Oct-01 22:33N 48°32' W 122°34'2 2.3
2014-Oct-01 21:33N 48°31' W 122°37'5 4.5
2014-Oct-01 20:33N 48°35' W 122°34'5 0.3
2014-Oct-01 04:17N 48°31' W 122°37'4 5.3
2014-Oct-01 03:33N 48°34' W 122°34'4 3.8
2014-Oct-01 02:33N 48°31' W 122°37'0 0.0
2014-Oct-01 01:33N 48°31' W 122°37'1 0.7
2014-Oct-01 00:33N 48°31' W 122°36'7 6.6
2014-Sep-30 23:33N 48°37' W 122°33'7 6.9
2014-Sep-30 22:33N 48°31' W 122°37'5 0.4
2014-Sep-30 09:33N 48°35' W 122°32'5 2.3
2014-Sep-30 07:12N 48°31' W 122°37'1 1.4
2014-Sep-30 06:33N 48°31' W 122°35'1 0.9
2014-Sep-30 05:33N 48°31' W 122°37'0 0.0
2014-Sep-30 04:33N 48°31' W 122°37'4 0.6
2014-Sep-29 21:33N 48°35' W 122°34'4 3.9
2014-Sep-29 20:33N 48°31' W 122°35'6 6.3
2014-Sep-29 19:33N 48°37' W 122°33'7 6.9
2014-Sep-29 18:33N 48°31' W 122°37'6 6.2
2014-Sep-29 17:32N 48°37' W 122°33'6 6.4
2014-Sep-29 16:33N 48°31' W 122°37'4 0.6
2014-Sep-29 10:32N 48°34' W 122°34'4 3.6
2014-Sep-29 09:33N 48°31' W 122°37'0 0.0
2014-Sep-28 23:33N 48°31' W 122°37'5 5.3
2014-Sep-28 22:33N 48°35' W 122°32'5 5.4
2014-Sep-28 21:34N 48°31' W 122°37'0 0.0
2014-Sep-28 09:14N 48°31' W 122°37'1 1.5
2014-Sep-28 08:33N 48°31' W 122°35'1 1.0
2014-Sep-28 07:33N 48°31' W 122°37'0 0.0
2014-Sep-28 06:33N 48°31' W 122°37'6 5.9
2014-Sep-28 05:34N 48°36' W 122°34'6 5.9
2014-Sep-28 04:34N 48°31' W 122°36'0 0.0
2014-Sep-27 17:33N 48°31' W 122°36'25 2.0
2014-Sep-27 05:24N 48°09' W 122°54'2 0.5
2014-Sep-27 00:25N 48°09' W 122°58'5 1.6
2014-Sep-26 21:17N 48°09' W 122°51'11 1.9
2014-Sep-26 15:32N 48°20' W 122°47'1313.8
2014-Sep-26 14:33N 48°31' W 122°37'1 0.1
2014-Sep-26 05:33N 48°31' W 122°36'2 2.0
2014-Sep-26 04:33N 48°32' W 122°34'2 0.4
2014-Sep-25 23:33N 48°31' W 122°36'0 0.5
2014-Sep-25 22:33N 48°31' W 122°37'0 0.0
2014-Sep-25 21:33N 48°31' W 122°37'0 0.0
2014-Sep-25 20:33N 48°31' W 122°37'0 0.2
2014-Sep-25 19:33N 48°31' W 122°36'0 0.2
2014-Sep-25 18:33N 48°31' W 122°37'0 0.0
2014-Sep-25 17:33N 48°31' W 122°37'4 3.9
2014-Sep-25 16:33N 48°31' W 122°42'4 4.0
2014-Sep-25 15:33N 48°31' W 122°36'0 0.1
2014-Sep-25 14:33N 48°31' W 122°36'0 0.2
2014-Sep-25 13:33N 48°31' W 122°37'0 0.0
2014-Sep-25 12:33N 48°31' W 122°37'0 0.0
2014-Sep-25 11:34N 48°31' W 122°37'0 0.0
2014-Sep-25 03:12N 48°31' W 122°37'2 3.2
2014-Sep-25 02:33N 48°32' W 122°34'1 0.8
2014-Sep-25 01:33N 48°31' W 122°35'1 0.8
2014-Sep-25 00:33N 48°31' W 122°35'0 0.2
2014-Sep-24 23:33N 48°31' W 122°36'1 0.7
2014-Sep-24 22:33N 48°31' W 122°37'7 7.1
2014-Sep-24 21:33N 48°37' W 122°32'7 7.1
2014-Sep-24 20:33N 48°31' W 122°37'0 0.0
2014-Sep-24 19:33N 48°31' W 122°37'2 1.6
2014-Sep-24 18:33N 48°31' W 122°34'6 6.0
2014-Sep-24 17:33N 48°37' W 122°32'7 7.1
2014-Sep-24 16:33N 48°31' W 122°37'0 0.0
2014-Sep-24 15:33N 48°31' W 122°37'0 0.0
2014-Sep-24 14:33N 48°31' W 122°37'0 0.0
2014-Sep-24 13:33N 48°31' W 122°37'2 1.5
2014-Sep-24 12:33N 48°31' W 122°35'1 0.2
2014-Sep-24 09:33N 48°32' W 122°34'2 0.2
2014-Sep-23 22:33N 48°31' W 122°36'2 2.3
2014-Sep-23 21:33N 48°32' W 122°34'0 0.1
2014-Sep-23 20:33N 48°33' W 122°34'2 1.9
2014-Sep-23 19:33N 48°31' W 122°36'1 0.7
2014-Sep-23 18:33N 48°31' W 122°37'6 5.3
2014-Sep-23 17:31N 48°35' W 122°32'5 5.7
2014-Sep-23 16:33N 48°31' W 122°37'5 5.4
2014-Sep-23 15:33N 48°35' W 122°32'0 0.1
2014-Sep-23 14:33N 48°35' W 122°32'6 5.6
2014-Sep-23 13:33N 48°31' W 122°37'4 0.7
2014-Sep-23 07:33N 48°35' W 122°34'4 0.5
2014-Sep-22 23:22N 48°31' W 122°37'0 0.1
2014-Sep-22 22:33N 48°31' W 122°36'7 6.6
2014-Sep-22 21:33N 48°37' W 122°33'3 0.2
2014-Sep-22 04:33N 48°34' W 122°34'4 3.6
2014-Sep-22 03:33N 48°31' W 122°37'  

Dump ship's entire track history